GUCYGFLL

Guest
Details From GUCY - CONAKRY
To GFLL - FREETOWN LUNGI
Flight Number -
Tags decoded
Created
Modified
Stats Distance 63 nm / 118 km
Max Altitude 0 ft / 0 m
Waypoints 4
Social Downloads 0
Likes 0
Share VATSIM

Download

Looking for another format? Having issues loading an existing format? Contact us
Advertisement - Login to hide

Notes

Requested: GUCY GIA LGI GFLL

Route

GUCY GIA LGI GFLL

ID Type Via Altitude Latitude Longitude Leg Dist Tot Dist Heading (true) Name
O GUCY APT - 0 ft / 0 m 9.57690˚ -13.61188˚ - 0 nm - CONAKRY
GIA VOR - 0 ft / 0 m 9.56798˚ -13.61969˚ 0 nm 0 nm 221° / 221° CONAKRY VOR-DME
LGI VOR - 0 ft / 0 m 8.61718˚ -13.19137˚ 62 nm 63 nm 156° / 156° FREETOWN LUNGI VOR-DME
O GFLL APT - 0 ft / 0 m 8.61644˚ -13.19549˚ 0 nm 63 nm 260° / 260° FREETOWN LUNGI

Altitude Profile

Advertisement - Login to hide

GUCY

Details ICAO GUCY (CKY)
Name CONAKRY
Region Guinea
Timezone Africa/Conakry (UTC+0.0)
Stats Elevation 72 ft / 22 m (AMSL)
Location 9.576897° -13.611879°
Runways 1
Magnetic Variation 7.006° W

METAR

Not found

TAF

TAF GUCY 102300Z 1100/1206 32008KT 5000 HZ FEW016 SCT120 TEMPO 1103/1109 VRB02KT 2000 NSC BECMG 1117/1121 24006KT 5000 HZ FEW015 SCT110

Decode

Departure Runways

ID Width Length Bearing (true) Bearing (mag) Surface Threshold Offset Overrun Length
06 148 ft / 45 m 10,836 ft / 3,303 m 49.26° 56.27° Asphalt 0 ft / 0 m 197 ft / 60 m
24 148 ft / 45 m 10,836 ft / 3,303 m 229.27° 236.28° Asphalt 0 ft / 0 m 197 ft / 60 m

GFLL

Details ICAO GFLL (FNA)
Name FREETOWN LUNGI
Region Sierra Leone
Timezone Africa/Freetown (UTC+0.0)
Stats Elevation 84 ft / 26 m (AMSL)
Location 8.616443° -13.195489°
Runways 1
Magnetic Variation 7.110° W

METAR

Not found

TAF

TAF TAF GFLL 102200Z 1100/1206 03003KT 7000 HZ NSC TEMPO 1104/1108 VRB02KT 5000 BR BKN010 TEMPO 1109/1113 8000 HZ SCT014

Decode

Destination Runways

ID Width Length Bearing (true) Bearing (mag) Surface Threshold Offset Overrun Length
12 150 ft / 46 m 10,507 ft / 3,203 m 107.14° 114.25° Asphalt 0 ft / 0 m 394 ft / 120 m
30 150 ft / 46 m 10,507 ft / 3,203 m 287.14° 294.25° Asphalt 0 ft / 0 m 197 ft / 60 m

Popular Alternatives